FIN8CA EBBR-EFHK
Flight info
| Callsign | FIN8CA |
|---|---|
| Flight time | N/A |
| Altitude | 35000 |
| Route | NIK L191 VICOT N873 BEDUM DCT DOSUR DCT PELUP DCT INGIS DCT ALAMI DCT OKEVU DCT EVADI Y370 DIVAM |
| Aircraft | A321/M-SADE1E2E3FGIJ1M3RWXYZ/LB1 |
Departure
| Time | N/A |
|---|---|
| Airport | Brussels Airport (EBBR) |
Arrival
| Time | 2026-05-04 13:00 |
|---|---|
| Airport | Helsinki Vantaa Airport (EFHK) |
| Time | Latitude | Longitude | Altitude | Speed | Heading |
|---|---|---|---|---|---|
| 2026-05-04 12:22 | 58.73176 | 18.34040 | 36761 ft | 503 kts | 77° |
| 2026-05-04 12:22 | 58.74911 | 18.47094 | 36762 ft | 504 kts | 77° |
| 2026-05-04 12:23 | 58.76647 | 18.60267 | 36766 ft | 504 kts | 77° |
| 2026-05-04 12:23 | 58.78370 | 18.73374 | 36767 ft | 504 kts | 77° |
| 2026-05-04 12:24 | 58.80071 | 18.86410 | 36764 ft | 504 kts | 77° |
| 2026-05-04 12:24 | 58.81768 | 18.99620 | 36763 ft | 504 kts | 77° |
| 2026-05-04 12:25 | 58.83444 | 19.12778 | 36768 ft | 505 kts | 78° |
| 2026-05-04 12:25 | 58.85110 | 19.25936 | 36766 ft | 505 kts | 78° |
| 2026-05-04 12:26 | 58.86760 | 19.39141 | 36765 ft | 505 kts | 78° |
| 2026-05-04 12:26 | 58.88394 | 19.52341 | 36765 ft | 505 kts | 78° |
| 2026-05-04 12:27 | 58.90025 | 19.65544 | 36767 ft | 504 kts | 78° |
| 2026-05-04 12:27 | 58.91644 | 19.78742 | 36765 ft | 504 kts | 78° |
| 2026-05-04 12:28 | 58.93232 | 19.91953 | 36760 ft | 504 kts | 78° |
| 2026-05-04 12:28 | 58.94809 | 20.05196 | 36760 ft | 504 kts | 78° |
| 2026-05-04 12:29 | 58.96382 | 20.18434 | 36757 ft | 504 kts | 79° |
| 2026-05-04 12:29 | 58.97938 | 20.31671 | 36758 ft | 504 kts | 79° |
| 2026-05-04 12:30 | 58.99476 | 20.44919 | 36757 ft | 504 kts | 79° |
| 2026-05-04 12:30 | 59.01003 | 20.58190 | 36755 ft | 504 kts | 79° |
| 2026-05-04 12:31 | 59.02520 | 20.71493 | 36753 ft | 504 kts | 79° |
| 2026-05-04 12:31 | 59.04022 | 20.84774 | 36754 ft | 504 kts | 77° |
| 2026-05-04 12:32 | 59.08460 | 21.03236 | 36752 ft | 505 kts | 58° |
| 2026-05-04 12:33 | 59.12170 | 21.14976 | 36752 ft | 506 kts | 58° |
| 2026-05-04 12:33 | 59.15829 | 21.26679 | 36752 ft | 506 kts | 58° |
| 2026-05-04 12:34 | 59.19491 | 21.38501 | 36749 ft | 506 kts | 58° |
| 2026-05-04 12:34 | 59.23127 | 21.50285 | 36749 ft | 506 kts | 59° |
| 2026-05-04 12:35 | 59.26804 | 21.62227 | 36748 ft | 506 kts | 59° |
| 2026-05-04 12:35 | 59.30419 | 21.74024 | 36746 ft | 506 kts | 59° |
| 2026-05-04 12:36 | 59.34044 | 21.85934 | 36745 ft | 505 kts | 59° |
| 2026-05-04 12:36 | 59.37636 | 21.97776 | 36739 ft | 505 kts | 59° |
| 2026-05-04 12:36 | 59.39432 | 22.03718 | 36505 ft | 505 kts | 59° |
| 2026-05-04 12:37 | 59.41218 | 22.09639 | 36249 ft | 504 kts | 59° |
| 2026-05-04 12:37 | 59.43004 | 22.15572 | 35994 ft | 505 kts | 59° |
| 2026-05-04 12:37 | 59.44785 | 22.21499 | 35699 ft | 505 kts | 59° |
| 2026-05-04 12:37 | 59.46581 | 22.27484 | 34987 ft | 508 kts | 59° |
| 2026-05-04 12:38 | 59.48375 | 22.33489 | 34227 ft | 513 kts | 60° |
| 2026-05-04 12:38 | 59.50186 | 22.39583 | 33295 ft | 520 kts | 60° |
| 2026-05-04 12:38 | 59.52016 | 22.45766 | 32524 ft | 521 kts | 60° |
| 2026-05-04 12:38 | 59.53821 | 22.51887 | 32116 ft | 515 kts | 60° |
| 2026-05-04 12:39 | 59.55611 | 22.57971 | 31571 ft | 512 kts | 60° |
| 2026-05-04 12:39 | 59.57393 | 22.64033 | 31052 ft | 509 kts | 60° |
| 2026-05-04 12:39 | 59.59165 | 22.70066 | 30520 ft | 506 kts | 60° |
| 2026-05-04 12:39 | 59.60924 | 22.76067 | 30002 ft | 503 kts | 60° |
| 2026-05-04 12:40 | 59.62668 | 22.82029 | 29426 ft | 500 kts | 60° |
| 2026-05-04 12:40 | 59.64397 | 22.87960 | 28925 ft | 495 kts | 61° |
| 2026-05-04 12:40 | 59.66100 | 22.93846 | 28402 ft | 490 kts | 61° |
| 2026-05-04 12:40 | 59.67784 | 22.99692 | 27883 ft | 486 kts | 61° |
| 2026-05-04 12:41 | 59.69448 | 23.05480 | 27394 ft | 481 kts | 61° |
| 2026-05-04 12:41 | 59.71105 | 23.11221 | 26888 ft | 477 kts | 60° |
| 2026-05-04 12:41 | 59.72750 | 23.16922 | 26407 ft | 473 kts | 61° |
| 2026-05-04 12:41 | 59.74371 | 23.22554 | 25927 ft | 469 kts | 60° |
| 2026-05-04 12:42 | 59.75982 | 23.28168 | 25462 ft | 466 kts | 60° |
| 2026-05-04 12:42 | 59.77574 | 23.33737 | 24993 ft | 462 kts | 61° |
| 2026-05-04 12:42 | 59.79151 | 23.39279 | 24555 ft | 459 kts | 61° |
| 2026-05-04 12:42 | 59.80715 | 23.44794 | 24111 ft | 456 kts | 61° |
| 2026-05-04 12:43 | 59.82261 | 23.50264 | 23680 ft | 453 kts | 61° |
| 2026-05-04 12:43 | 59.83795 | 23.55703 | 23243 ft | 450 kts | 61° |
| 2026-05-04 12:43 | 59.85323 | 23.61122 | 22776 ft | 447 kts | 61° |
| 2026-05-04 12:43 | 59.86841 | 23.66506 | 22360 ft | 443 kts | 61° |
| 2026-05-04 12:44 | 59.88340 | 23.71841 | 21956 ft | 438 kts | 61° |
| 2026-05-04 12:44 | 59.89806 | 23.77087 | 21805 ft | 427 kts | 61° |
| 2026-05-04 12:44 | 59.90770 | 23.80544 | 21712 ft | 419 kts | 61° |
| 2026-05-04 12:44 | 59.92002 | 23.85708 | 21569 ft | 407 kts | 68° |
| 2026-05-04 12:45 | 59.93102 | 23.90864 | 21219 ft | 402 kts | 68° |
| 2026-05-04 12:45 | 59.94193 | 23.95974 | 20809 ft | 399 kts | 68° |
| 2026-05-04 12:45 | 59.95275 | 24.01048 | 20401 ft | 396 kts | 68° |
| 2026-05-04 12:45 | 59.96357 | 24.06147 | 19910 ft | 393 kts | 68° |
| 2026-05-04 12:46 | 59.97417 | 24.11164 | 19431 ft | 390 kts | 68° |
| 2026-05-04 12:46 | 59.98479 | 24.16211 | 18947 ft | 387 kts | 68° |
| 2026-05-04 12:46 | 59.99516 | 24.21151 | 18478 ft | 384 kts | 68° |
| 2026-05-04 12:46 | 60.00548 | 24.26066 | 18009 ft | 381 kts | 68° |
| 2026-05-04 12:47 | 60.01566 | 24.30930 | 17491 ft | 379 kts | 68° |
| 2026-05-04 12:47 | 60.02241 | 24.34175 | 17111 ft | 376 kts | 68° |
| 2026-05-04 12:47 | 60.03248 | 24.39041 | 16589 ft | 373 kts | 68° |
| 2026-05-04 12:48 | 60.04259 | 24.43903 | 16090 ft | 371 kts | 68° |
| 2026-05-04 12:48 | 60.05247 | 24.48650 | 15654 ft | 368 kts | 68° |
| 2026-05-04 12:48 | 60.06234 | 24.53390 | 15198 ft | 366 kts | 68° |
| 2026-05-04 12:48 | 60.07203 | 24.58063 | 14716 ft | 363 kts | 68° |
| 2026-05-04 12:49 | 60.08163 | 24.62724 | 14225 ft | 360 kts | 68° |
| 2026-05-04 12:49 | 60.09115 | 24.67361 | 13739 ft | 358 kts | 68° |
| 2026-05-04 12:49 | 60.10212 | 24.71913 | 13208 ft | 354 kts | 57° |
| 2026-05-04 12:49 | 60.11668 | 24.75788 | 12608 ft | 348 kts | 45° |
| 2026-05-04 12:50 | 60.13334 | 24.79387 | 11970 ft | 345 kts | 45° |
| 2026-05-04 12:50 | 60.14956 | 24.82899 | 11365 ft | 342 kts | 45° |
| 2026-05-04 12:50 | 60.16574 | 24.86421 | 10780 ft | 336 kts | 45° |
| 2026-05-04 12:50 | 60.18144 | 24.89849 | 10347 ft | 331 kts | 45° |
| 2026-05-04 12:51 | 60.19717 | 24.93298 | 10088 ft | 330 kts | 45° |
| 2026-05-04 12:51 | 60.21263 | 24.96697 | 9803 ft | 330 kts | 45° |
| 2026-05-04 12:51 | 60.22837 | 25.00164 | 9393 ft | 331 kts | 46° |
| 2026-05-04 12:51 | 60.24374 | 25.03550 | 9008 ft | 326 kts | 45° |
| 2026-05-04 12:52 | 60.25898 | 25.06912 | 8565 ft | 322 kts | 45° |
| 2026-05-04 12:52 | 60.27401 | 25.10242 | 8130 ft | 319 kts | 46° |
| 2026-05-04 12:52 | 60.28880 | 25.13519 | 7723 ft | 314 kts | 46° |
| 2026-05-04 12:52 | 60.30343 | 25.16766 | 7301 ft | 310 kts | 46° |
| 2026-05-04 12:53 | 60.31784 | 25.19967 | 6832 ft | 305 kts | 46° |
| 2026-05-04 12:53 | 60.33196 | 25.23105 | 6505 ft | 299 kts | 46° |
| 2026-05-04 12:53 | 60.34568 | 25.26154 | 6286 ft | 286 kts | 46° |
| 2026-05-04 12:53 | 60.35877 | 25.29061 | 6078 ft | 273 kts | 46° |
| 2026-05-04 12:54 | 60.37132 | 25.31852 | 5770 ft | 264 kts | 47° |
| 2026-05-04 12:54 | 60.38424 | 25.34419 | 5368 ft | 257 kts | 30° |
| 2026-05-04 12:54 | 60.40054 | 25.35607 | 4911 ft | 246 kts | 359° |
| 2026-05-04 12:54 | 60.41691 | 25.35075 | 4454 ft | 236 kts | 331° |
| 2026-05-04 12:55 | 60.42998 | 25.33197 | 4092 ft | 230 kts | 314° |
| 2026-05-04 12:55 | 60.44158 | 25.30980 | 3815 ft | 224 kts | 307° |
| 2026-05-04 12:55 | 60.44843 | 25.28359 | 3803 ft | 205 kts | 281° |
| 2026-05-04 12:55 | 60.44895 | 25.25539 | 3688 ft | 200 kts | 257° |
| 2026-05-04 12:56 | 60.44350 | 25.22992 | 3502 ft | 198 kts | 233° |
| 2026-05-04 12:56 | 60.43431 | 25.20898 | 3258 ft | 199 kts | 229° |
| 2026-05-04 12:56 | 60.42508 | 25.18847 | 2989 ft | 195 kts | 229° |
| 2026-05-04 12:56 | 60.41606 | 25.16842 | 2731 ft | 191 kts | 229° |
| 2026-05-04 12:57 | 60.40721 | 25.14874 | 2471 ft | 187 kts | 229° |
| 2026-05-04 12:57 | 60.39862 | 25.12963 | 2237 ft | 181 kts | 229° |
| 2026-05-04 12:57 | 60.39025 | 25.11103 | 1965 ft | 175 kts | 229° |
| 2026-05-04 12:57 | 60.38214 | 25.09305 | 1739 ft | 172 kts | 229° |
| 2026-05-04 12:58 | 60.37432 | 25.07571 | 1512 ft | 162 kts | 229° |
| 2026-05-04 12:58 | 60.36687 | 25.05920 | 1293 ft | 154 kts | 229° |
| 2026-05-04 12:58 | 60.35992 | 25.04374 | 1089 ft | 145 kts | 229° |
| 2026-05-04 12:58 | 60.35318 | 25.02878 | 846 ft | 143 kts | 228° |
| 2026-05-04 12:59 | 60.34653 | 25.01400 | 664 ft | 142 kts | 228° |
| 2026-05-04 12:59 | 60.33990 | 24.99926 | 480 ft | 142 kts | 228° |
| 2026-05-04 12:59 | 60.33326 | 24.98467 | 295 ft | 141 kts | 227° |
| 2026-05-04 12:59 | 60.32675 | 24.97035 | 173 ft | 128 kts | 227° |
| 2026-05-04 13:00 | 60.32263 | 24.96135 | 178 ft | 49 kts | 227° |
| 2026-05-04 13:00 | 60.32111 | 24.95816 | 176 ft | 15 kts | 213° |
| 2026-05-04 13:00 | 60.32033 | 24.95837 | 174 ft | 11 kts | 144° |
| 2026-05-04 13:00 | 60.31966 | 24.95960 | 172 ft | 14 kts | 137° |
| 2026-05-04 13:01 | 60.31895 | 24.96089 | 167 ft | 15 kts | 138° |
| 2026-05-04 13:01 | 60.31849 | 24.96233 | 167 ft | 11 kts | 94° |
| 2026-05-04 13:01 | 60.31883 | 24.96383 | 167 ft | 13 kts | 48° |
| 2026-05-04 13:01 | 60.31938 | 24.96506 | 167 ft | 8 kts | 47° |
| 2026-05-04 13:02 | 60.31942 | 24.96550 | 167 ft | 1 kts | 117° |
| 2026-05-04 13:02 | 60.31928 | 24.96580 | 167 ft | 4 kts | 136° |
| 2026-05-04 13:02 | 60.31917 | 24.96600 | 167 ft | 1 kts | 137° |
| 2026-05-04 13:02 | 60.31910 | 24.96615 | 167 ft | 1 kts | 137° |
| 2026-05-04 13:03 | 60.31908 | 24.96618 | 167 ft | 0 kts | 137° |